sensor_id;sensor_type;location;lat;lon;timestamp;temperature;humidity
47336;DHT22;33068;51.990;5.926;2022-09-17T00:01:24;11.20;99.90
47336;DHT22;33068;51.990;5.926;2022-09-17T00:03:54;11.20;99.90
47336;DHT22;33068;51.990;5.926;2022-09-17T00:06:23;11.20;99.90
47336;DHT22;33068;51.990;5.926;2022-09-17T00:08:51;11.10;99.90
47336;DHT22;33068;51.990;5.926;2022-09-17T00:11:21;11.10;99.90
47336;DHT22;33068;51.990;5.926;2022-09-17T00:13:49;11.10;99.90
47336;DHT22;33068;51.990;5.926;2022-09-17T00:16:23;11.00;99.90
47336;DHT22;33068;51.990;5.926;2022-09-17T00:18:50;11.00;99.90
47336;DHT22;33068;51.990;5.926;2022-09-17T00:21:19;11.00;99.90
47336;DHT22;33068;51.990;5.926;2022-09-17T00:23:46;10.90;99.90
47336;DHT22;33068;51.990;5.926;2022-09-17T00:26:14;10.90;99.90
47336;DHT22;33068;51.990;5.926;2022-09-17T00:28:41;11.00;99.90
47336;DHT22;33068;51.990;5.926;2022-09-17T00:31:10;10.80;99.90
47336;DHT22;33068;51.990;5.926;2022-09-17T00:33:37;10.80;99.90
47336;DHT22;33068;51.990;5.926;2022-09-17T00:36:05;11.00;99.90
47336;DHT22;33068;51.990;5.926;2022-09-17T00:38:33;10.80;99.90
47336;DHT22;33068;51.990;5.926;2022-09-17T00:41:01;10.80;99.90
47336;DHT22;33068;51.990;5.926;2022-09-17T00:43:38;10.90;99.90
47336;DHT22;33068;51.990;5.926;2022-09-17T00:46:11;10.70;99.90
47336;DHT22;33068;51.990;5.926;2022-09-17T00:48:43;11.00;99.90
47336;DHT22;33068;51.990;5.926;2022-09-17T00:51:10;10.70;99.90
47336;DHT22;33068;51.990;5.926;2022-09-17T00:53:41;10.70;99.90
47336;DHT22;33068;51.990;5.926;2022-09-17T00:56:13;10.70;99.90
47336;DHT22;33068;51.990;5.926;2022-09-17T00:58:42;10.70;99.90
47336;DHT22;33068;51.990;5.926;2022-09-17T01:01:09;10.70;99.90
47336;DHT22;33068;51.990;5.926;2022-09-17T01:03:36;10.70;99.90
47336;DHT22;33068;51.990;5.926;2022-09-17T01:06:10;10.60;99.90
47336;DHT22;33068;51.990;5.926;2022-09-17T01:08:52;10.80;99.90
47336;DHT22;33068;51.990;5.926;2022-09-17T01:11:40;10.80;99.90
47336;DHT22;33068;51.990;5.926;2022-09-17T01:14:21;10.70;99.90
47336;DHT22;33068;51.990;5.926;2022-09-17T01:16:57;10.70;99.90
47336;DHT22;33068;51.990;5.926;2022-09-17T01:22:31;10.70;99.90
47336;DHT22;33068;51.990;5.926;2022-09-17T01:25:21;10.70;99.90
47336;DHT22;33068;51.990;5.926;2022-09-17T01:28:11;10.70;99.90
47336;DHT22;33068;51.990;5.926;2022-09-17T01:31:06;10.80;99.90
47336;DHT22;33068;51.990;5.926;2022-09-17T01:33:40;10.80;99.90
47336;DHT22;33068;51.990;5.926;2022-09-17T01:36:19;10.80;99.90
47336;DHT22;33068;51.990;5.926;2022-09-17T01:38:53;10.80;99.90
47336;DHT22;33068;51.990;5.926;2022-09-17T01:41:29;10.70;99.90
47336;DHT22;33068;51.990;5.926;2022-09-17T01:44:01;11.10;99.90
47336;DHT22;33068;51.990;5.926;2022-09-17T01:46:36;10.70;99.90
47336;DHT22;33068;51.990;5.926;2022-09-17T01:49:07;10.70;99.90
47336;DHT22;33068;51.990;5.926;2022-09-17T01:51:38;10.70;99.90
47336;DHT22;33068;51.990;5.926;2022-09-17T01:54:14;10.60;99.90
47336;DHT22;33068;51.990;5.926;2022-09-17T01:56:46;10.60;99.90
47336;DHT22;33068;51.990;5.926;2022-09-17T01:59:19;10.60;99.90
47336;DHT22;33068;51.990;5.926;2022-09-17T02:01:52;10.60;99.90
47336;DHT22;33068;51.990;5.926;2022-09-17T02:04:24;10.50;99.90
47336;DHT22;33068;51.990;5.926;2022-09-17T02:06:57;10.50;99.90
47336;DHT22;33068;51.990;5.926;2022-09-17T02:09:30;10.40;99.90
47336;DHT22;33068;51.990;5.926;2022-09-17T02:12:01;10.30;99.90
47336;DHT22;33068;51.990;5.926;2022-09-17T02:14:37;10.30;99.90
47336;DHT22;33068;51.990;5.926;2022-09-17T02:17:11;10.30;99.90
47336;DHT22;33068;51.990;5.926;2022-09-17T02:19:40;10.30;99.90
47336;DHT22;33068;51.990;5.926;2022-09-17T02:22:14;10.20;99.90
47336;DHT22;33068;51.990;5.926;2022-09-17T02:24:46;10.30;99.90
47336;DHT22;33068;51.990;5.926;2022-09-17T02:27:20;10.30;99.90
47336;DHT22;33068;51.990;5.926;2022-09-17T02:29:49;10.20;99.90
47336;DHT22;33068;51.990;5.926;2022-09-17T02:32:18;10.30;99.90
47336;DHT22;33068;51.990;5.926;2022-09-17T02:34:45;10.20;99.90
47336;DHT22;33068;51.990;5.926;2022-09-17T02:37:13;10.20;99.90
47336;DHT22;33068;51.990;5.926;2022-09-17T02:39:40;10.10;99.90
47336;DHT22;33068;51.990;5.926;2022-09-17T02:42:15;10.30;99.90
47336;DHT22;33068;51.990;5.926;2022-09-17T02:44:54;10.20;99.90
47336;DHT22;33068;51.990;5.926;2022-09-17T02:50:40;10.20;99.90
47336;DHT22;33068;51.990;5.926;2022-09-17T02:53:18;10.20;99.90
47336;DHT22;33068;51.990;5.926;2022-09-17T02:55:51;10.10;99.90
47336;DHT22;33068;51.990;5.926;2022-09-17T02:58:28;10.40;99.90
47336;DHT22;33068;51.990;5.926;2022-09-17T03:01:03;10.10;99.90
47336;DHT22;33068;51.990;5.926;2022-09-17T03:03:34;10.00;99.90
47336;DHT22;33068;51.990;5.926;2022-09-17T03:06:05;9.90;99.90
47336;DHT22;33068;51.990;5.926;2022-09-17T03:08:34;9.90;99.90
47336;DHT22;33068;51.990;5.926;2022-09-17T03:11:03;9.90;99.90
47336;DHT22;33068;51.990;5.926;2022-09-17T03:13:31;9.90;99.90
47336;DHT22;33068;51.990;5.926;2022-09-17T03:16:00;9.80;99.90
47336;DHT22;33068;51.990;5.926;2022-09-17T03:18:27;9.60;99.90
47336;DHT22;33068;51.990;5.926;2022-09-17T03:20:54;10.10;99.90
47336;DHT22;33068;51.990;5.926;2022-09-17T03:23:23;9.70;99.90
47336;DHT22;33068;51.990;5.926;2022-09-17T03:25:50;9.90;99.90
47336;DHT22;33068;51.990;5.926;2022-09-17T03:28:17;9.60;99.90
47336;DHT22;33068;51.990;5.926;2022-09-17T03:30:45;9.60;99.90
47336;DHT22;33068;51.990;5.926;2022-09-17T03:33:13;9.60;99.90
47336;DHT22;33068;51.990;5.926;2022-09-17T03:35:41;9.50;99.90
47336;DHT22;33068;51.990;5.926;2022-09-17T03:38:09;9.40;99.90
47336;DHT22;33068;51.990;5.926;2022-09-17T03:40:38;9.50;99.90
47336;DHT22;33068;51.990;5.926;2022-09-17T03:43:05;9.40;99.90
47336;DHT22;33068;51.990;5.926;2022-09-17T03:45:32;9.40;99.90
47336;DHT22;33068;51.990;5.926;2022-09-17T03:48:00;9.30;99.90
47336;DHT22;33068;51.990;5.926;2022-09-17T03:50:27;9.30;99.90
47336;DHT22;33068;51.990;5.926;2022-09-17T03:52:54;9.20;99.90
47336;DHT22;33068;51.990;5.926;2022-09-17T03:55:21;9.20;99.90
47336;DHT22;33068;51.990;5.926;2022-09-17T03:57:49;9.30;99.90
47336;DHT22;33068;51.990;5.926;2022-09-17T04:00:17;9.30;99.90
47336;DHT22;33068;51.990;5.926;2022-09-17T04:02:44;9.30;99.90
47336;DHT22;33068;51.990;5.926;2022-09-17T04:05:11;9.40;99.90
47336;DHT22;33068;51.990;5.926;2022-09-17T04:07:39;9.40;99.90
47336;DHT22;33068;51.990;5.926;2022-09-17T04:10:07;9.40;99.90
47336;DHT22;33068;51.990;5.926;2022-09-17T04:12:34;9.40;99.90
47336;DHT22;33068;51.990;5.926;2022-09-17T04:15:03;9.40;99.90
47336;DHT22;33068;51.990;5.926;2022-09-17T04:17:30;9.50;99.90
47336;DHT22;33068;51.990;5.926;2022-09-17T04:19:58;9.30;99.90
47336;DHT22;33068;51.990;5.926;2022-09-17T04:22:25;9.20;99.90
47336;DHT22;33068;51.990;5.926;2022-09-17T04:24:52;9.20;99.90
47336;DHT22;33068;51.990;5.926;2022-09-17T04:27:19;9.30;99.90
47336;DHT22;33068;51.990;5.926;2022-09-17T04:29:46;9.30;99.90
47336;DHT22;33068;51.990;5.926;2022-09-17T04:32:14;9.20;99.90
47336;DHT22;33068;51.990;5.926;2022-09-17T04:34:42;9.20;99.90
47336;DHT22;33068;51.990;5.926;2022-09-17T04:37:09;9.20;99.90
47336;DHT22;33068;51.990;5.926;2022-09-17T04:39:36;9.10;99.90
47336;DHT22;33068;51.990;5.926;2022-09-17T04:42:03;9.10;99.90
47336;DHT22;33068;51.990;5.926;2022-09-17T04:44:30;9.10;99.90
47336;DHT22;33068;51.990;5.926;2022-09-17T04:46:57;9.00;99.90
47336;DHT22;33068;51.990;5.926;2022-09-17T04:49:26;9.00;99.90
47336;DHT22;33068;51.990;5.926;2022-09-17T04:51:55;8.90;99.90
47336;DHT22;33068;51.990;5.926;2022-09-17T04:54:22;8.90;99.90
47336;DHT22;33068;51.990;5.926;2022-09-17T04:56:50;8.80;99.90
47336;DHT22;33068;51.990;5.926;2022-09-17T04:59:17;8.80;99.90
47336;DHT22;33068;51.990;5.926;2022-09-17T05:01:44;8.70;99.90
47336;DHT22;33068;51.990;5.926;2022-09-17T05:04:11;8.70;99.90
47336;DHT22;33068;51.990;5.926;2022-09-17T05:06:39;8.70;99.90
47336;DHT22;33068;51.990;5.926;2022-09-17T05:09:06;8.70;99.90
47336;DHT22;33068;51.990;5.926;2022-09-17T05:11:33;8.70;99.90
47336;DHT22;33068;51.990;5.926;2022-09-17T05:14:00;8.70;99.90
47336;DHT22;33068;51.990;5.926;2022-09-17T05:16:27;8.70;99.90
47336;DHT22;33068;51.990;5.926;2022-09-17T05:18:55;8.70;99.90
47336;DHT22;33068;51.990;5.926;2022-09-17T05:21:22;8.70;99.90
47336;DHT22;33068;51.990;5.926;2022-09-17T05:23:51;8.70;99.90
47336;DHT22;33068;51.990;5.926;2022-09-17T05:26:18;8.60;99.90
47336;DHT22;33068;51.990;5.926;2022-09-17T05:28:45;8.70;99.90
47336;DHT22;33068;51.990;5.926;2022-09-17T05:31:12;8.60;99.90
47336;DHT22;33068;51.990;5.926;2022-09-17T05:33:39;8.60;99.90
47336;DHT22;33068;51.990;5.926;2022-09-17T05:36:06;8.60;99.90
47336;DHT22;33068;51.990;5.926;2022-09-17T05:38:34;8.60;99.90
47336;DHT22;33068;51.990;5.926;2022-09-17T05:41:04;8.60;99.90
47336;DHT22;33068;51.990;5.926;2022-09-17T05:43:32;8.60;99.90
47336;DHT22;33068;51.990;5.926;2022-09-17T05:46:00;8.60;99.90
47336;DHT22;33068;51.990;5.926;2022-09-17T05:48:28;8.60;99.90
47336;DHT22;33068;51.990;5.926;2022-09-17T05:50:55;8.60;99.90
47336;DHT22;33068;51.990;5.926;2022-09-17T05:53:23;8.60;99.90
47336;DHT22;33068;51.990;5.926;2022-09-17T05:55:49;8.60;99.90
47336;DHT22;33068;51.990;5.926;2022-09-17T05:58:18;8.60;99.90
47336;DHT22;33068;51.990;5.926;2022-09-17T06:00:45;8.60;99.90
47336;DHT22;33068;51.990;5.926;2022-09-17T06:03:16;8.60;99.90
47336;DHT22;33068;51.990;5.926;2022-09-17T06:05:51;8.70;99.90
47336;DHT22;33068;51.990;5.926;2022-09-17T06:08:18;8.60;99.90
47336;DHT22;33068;51.990;5.926;2022-09-17T06:10:45;8.60;99.90
47336;DHT22;33068;51.990;5.926;2022-09-17T06:13:12;8.60;99.90
47336;DHT22;33068;51.990;5.926;2022-09-17T06:15:41;8.60;99.90
47336;DHT22;33068;51.990;5.926;2022-09-17T06:18:08;8.60;99.90
47336;DHT22;33068;51.990;5.926;2022-09-17T06:20:36;8.70;99.90
47336;DHT22;33068;51.990;5.926;2022-09-17T06:23:03;9.00;99.90
47336;DHT22;33068;51.990;5.926;2022-09-17T06:25:30;8.70;99.90
47336;DHT22;33068;51.990;5.926;2022-09-17T06:27:57;8.80;99.90
47336;DHT22;33068;51.990;5.926;2022-09-17T06:30:24;8.80;99.90
47336;DHT22;33068;51.990;5.926;2022-09-17T06:32:53;8.90;99.90
47336;DHT22;33068;51.990;5.926;2022-09-17T06:35:20;8.80;99.90
47336;DHT22;33068;51.990;5.926;2022-09-17T06:37:48;8.80;99.90
47336;DHT22;33068;51.990;5.926;2022-09-17T06:40:15;8.90;99.90
47336;DHT22;33068;51.990;5.926;2022-09-17T06:42:42;8.90;99.90
47336;DHT22;33068;51.990;5.926;2022-09-17T06:45:09;9.00;99.90
47336;DHT22;33068;51.990;5.926;2022-09-17T06:47:36;9.00;99.90
47336;DHT22;33068;51.990;5.926;2022-09-17T06:50:05;9.00;99.90
47336;DHT22;33068;51.990;5.926;2022-09-17T06:52:32;9.10;99.90
47336;DHT22;33068;51.990;5.926;2022-09-17T06:54:59;9.10;99.90
47336;DHT22;33068;51.990;5.926;2022-09-17T06:57:27;9.20;99.90
47336;DHT22;33068;51.990;5.926;2022-09-17T06:59:54;9.30;99.90
47336;DHT22;33068;51.990;5.926;2022-09-17T07:02:21;9.40;99.90
47336;DHT22;33068;51.990;5.926;2022-09-17T07:04:48;9.20;99.90
47336;DHT22;33068;51.990;5.926;2022-09-17T07:07:16;9.60;99.90
47336;DHT22;33068;51.990;5.926;2022-09-17T07:09:43;9.60;99.90
47336;DHT22;33068;51.990;5.926;2022-09-17T07:12:10;9.60;99.90
47336;DHT22;33068;51.990;5.926;2022-09-17T07:14:38;9.70;99.90
47336;DHT22;33068;51.990;5.926;2022-09-17T07:17:05;9.80;99.90
47336;DHT22;33068;51.990;5.926;2022-09-17T07:19:32;9.90;99.90
47336;DHT22;33068;51.990;5.926;2022-09-17T07:21:59;10.00;99.90
47336;DHT22;33068;51.990;5.926;2022-09-17T07:24:28;10.10;99.90
47336;DHT22;33068;51.990;5.926;2022-09-17T07:26:55;10.20;99.90
47336;DHT22;33068;51.990;5.926;2022-09-17T07:29:22;10.20;99.90
47336;DHT22;33068;51.990;5.926;2022-09-17T07:31:51;10.30;99.90
47336;DHT22;33068;51.990;5.926;2022-09-17T07:34:18;10.40;99.90
47336;DHT22;33068;51.990;5.926;2022-09-17T07:36:45;10.40;99.90
47336;DHT22;33068;51.990;5.926;2022-09-17T07:39:12;10.50;99.90
47336;DHT22;33068;51.990;5.926;2022-09-17T07:41:41;10.60;99.90
47336;DHT22;33068;51.990;5.926;2022-09-17T07:44:08;10.60;99.90
47336;DHT22;33068;51.990;5.926;2022-09-17T07:46:35;10.80;99.90
47336;DHT22;33068;51.990;5.926;2022-09-17T07:49:02;10.90;99.90
47336;DHT22;33068;51.990;5.926;2022-09-17T07:51:29;11.00;99.90
47336;DHT22;33068;51.990;5.926;2022-09-17T07:53:57;11.10;99.90
47336;DHT22;33068;51.990;5.926;2022-09-17T07:56:26;11.20;99.90
47336;DHT22;33068;51.990;5.926;2022-09-17T07:58:54;11.20;99.90
47336;DHT22;33068;51.990;5.926;2022-09-17T08:01:22;11.40;99.90
47336;DHT22;33068;51.990;5.926;2022-09-17T08:03:50;11.40;99.90
47336;DHT22;33068;51.990;5.926;2022-09-17T08:06:22;11.40;99.90
47336;DHT22;33068;51.990;5.926;2022-09-17T08:08:50;11.80;99.90
47336;DHT22;33068;51.990;5.926;2022-09-17T08:11:20;11.60;99.90
47336;DHT22;33068;51.990;5.926;2022-09-17T08:13:47;11.60;99.90
47336;DHT22;33068;51.990;5.926;2022-09-17T08:16:17;11.80;99.90
47336;DHT22;33068;51.990;5.926;2022-09-17T08:18:45;12.00;99.90
47336;DHT22;33068;51.990;5.926;2022-09-17T08:21:15;11.90;99.90
47336;DHT22;33068;51.990;5.926;2022-09-17T08:23:43;12.00;99.90
47336;DHT22;33068;51.990;5.926;2022-09-17T08:26:12;12.20;99.90
47336;DHT22;33068;51.990;5.926;2022-09-17T08:28:43;12.40;99.90
47336;DHT22;33068;51.990;5.926;2022-09-17T08:31:11;12.60;99.90
47336;DHT22;33068;51.990;5.926;2022-09-17T08:33:40;12.80;99.90
47336;DHT22;33068;51.990;5.926;2022-09-17T08:36:10;13.30;99.90
47336;DHT22;33068;51.990;5.926;2022-09-17T08:38:37;13.40;99.90
47336;DHT22;33068;51.990;5.926;2022-09-17T08:41:17;13.40;99.90
47336;DHT22;33068;51.990;5.926;2022-09-17T08:43:51;13.40;99.90
47336;DHT22;33068;51.990;5.926;2022-09-17T08:46:20;14.00;99.90
47336;DHT22;33068;51.990;5.926;2022-09-17T08:48:52;14.30;99.90
47336;DHT22;33068;51.990;5.926;2022-09-17T08:51:30;14.60;99.90
47336;DHT22;33068;51.990;5.926;2022-09-17T08:54:12;14.50;99.90
47336;DHT22;33068;51.990;5.926;2022-09-17T08:56:44;14.60;99.90
47336;DHT22;33068;51.990;5.926;2022-09-17T08:59:19;14.70;99.90
47336;DHT22;33068;51.990;5.926;2022-09-17T09:01:55;14.70;99.90
47336;DHT22;33068;51.990;5.926;2022-09-17T09:04:43;14.50;99.90
47336;DHT22;33068;51.990;5.926;2022-09-17T09:07:21;14.60;99.90
47336;DHT22;33068;51.990;5.926;2022-09-17T09:09:55;14.80;99.90
47336;DHT22;33068;51.990;5.926;2022-09-17T09:12:32;15.00;99.90
47336;DHT22;33068;51.990;5.926;2022-09-17T09:15:02;15.10;99.90
47336;DHT22;33068;51.990;5.926;2022-09-17T09:17:39;15.20;99.90
47336;DHT22;33068;51.990;5.926;2022-09-17T09:20:15;15.50;99.90
47336;DHT22;33068;51.990;5.926;2022-09-17T09:22:47;15.70;99.90
47336;DHT22;33068;51.990;5.926;2022-09-17T09:25:20;15.90;99.90
47336;DHT22;33068;51.990;5.926;2022-09-17T09:27:58;16.00;99.90
47336;DHT22;33068;51.990;5.926;2022-09-17T09:30:33;16.10;99.90
47336;DHT22;33068;51.990;5.926;2022-09-17T09:33:08;16.20;99.30
47336;DHT22;33068;51.990;5.926;2022-09-17T09:35:41;16.20;99.90
47336;DHT22;33068;51.990;5.926;2022-09-17T09:38:16;16.50;99.90
47336;DHT22;33068;51.990;5.926;2022-09-17T09:40:45;16.70;99.50
47336;DHT22;33068;51.990;5.926;2022-09-17T09:43:18;16.70;99.20
47336;DHT22;33068;51.990;5.926;2022-09-17T09:45:58;16.80;99.90
47336;DHT22;33068;51.990;5.926;2022-09-17T09:48:33;16.60;99.40
47336;DHT22;33068;51.990;5.926;2022-09-17T09:51:22;16.70;99.90
47336;DHT22;33068;51.990;5.926;2022-09-17T09:54:06;17.30;98.80
47336;DHT22;33068;51.990;5.926;2022-09-17T09:56:55;17.00;97.90
47336;DHT22;33068;51.990;5.926;2022-09-17T09:59:22;15.60;99.90
47336;DHT22;33068;51.990;5.926;2022-09-17T10:01:50;14.80;99.90
47336;DHT22;33068;51.990;5.926;2022-09-17T10:04:20;14.20;99.90
47336;DHT22;33068;51.990;5.926;2022-09-17T10:06:51;13.80;99.90
47336;DHT22;33068;51.990;5.926;2022-09-17T10:09:19;13.50;99.90
47336;DHT22;33068;51.990;5.926;2022-09-17T10:12:04;13.30;99.90
47336;DHT22;33068;51.990;5.926;2022-09-17T10:14:33;13.40;99.90
47336;DHT22;33068;51.990;5.926;2022-09-17T10:17:20;13.40;99.90
47336;DHT22;33068;51.990;5.926;2022-09-17T10:20:13;13.40;99.90
47336;DHT22;33068;51.990;5.926;2022-09-17T10:22:42;13.60;99.90
47336;DHT22;33068;51.990;5.926;2022-09-17T10:25:30;13.80;99.90
47336;DHT22;33068;51.990;5.926;2022-09-17T10:28:00;13.90;99.90
47336;DHT22;33068;51.990;5.926;2022-09-17T10:30:29;13.80;99.90
47336;DHT22;33068;51.990;5.926;2022-09-17T10:33:15;13.70;99.90
47336;DHT22;33068;51.990;5.926;2022-09-17T10:35:55;13.70;99.90
47336;DHT22;33068;51.990;5.926;2022-09-17T10:38:33;14.20;99.90
47336;DHT22;33068;51.990;5.926;2022-09-17T10:41:17;14.20;99.90
47336;DHT22;33068;51.990;5.926;2022-09-17T10:43:46;13.80;99.90
47336;DHT22;33068;51.990;5.926;2022-09-17T10:46:17;13.00;99.90
47336;DHT22;33068;51.990;5.926;2022-09-17T10:48:52;12.40;99.90
47336;DHT22;33068;51.990;5.926;2022-09-17T10:51:23;11.80;99.90
47336;DHT22;33068;51.990;5.926;2022-09-17T10:56:53;11.40;99.90
47336;DHT22;33068;51.990;5.926;2022-09-17T10:59:40;11.70;99.90
47336;DHT22;33068;51.990;5.926;2022-09-17T11:02:25;12.10;99.90
47336;DHT22;33068;51.990;5.926;2022-09-17T11:05:06;12.50;99.90
47336;DHT22;33068;51.990;5.926;2022-09-17T11:07:44;12.90;99.90
47336;DHT22;33068;51.990;5.926;2022-09-17T11:10:20;13.30;99.90
47336;DHT22;33068;51.990;5.926;2022-09-17T11:13:05;13.70;99.90
47336;DHT22;33068;51.990;5.926;2022-09-17T11:15:46;14.00;99.90
47336;DHT22;33068;51.990;5.926;2022-09-17T11:21:19;14.30;99.90
47336;DHT22;33068;51.990;5.926;2022-09-17T11:24:11;14.50;99.90
47336;DHT22;33068;51.990;5.926;2022-09-17T11:26:47;14.90;99.90
47336;DHT22;33068;51.990;5.926;2022-09-17T11:29:33;15.20;99.90
47336;DHT22;33068;51.990;5.926;2022-09-17T11:32:13;15.50;99.90
47336;DHT22;33068;51.990;5.926;2022-09-17T11:34:46;15.80;99.90
47336;DHT22;33068;51.990;5.926;2022-09-17T11:37:21;15.90;99.90
47336;DHT22;33068;51.990;5.926;2022-09-17T11:39:53;16.20;99.90
47336;DHT22;33068;51.990;5.926;2022-09-17T11:42:29;16.40;99.90
47336;DHT22;33068;51.990;5.926;2022-09-17T11:44:59;16.40;99.90
47336;DHT22;33068;51.990;5.926;2022-09-17T11:47:33;16.50;99.90
47336;DHT22;33068;51.990;5.926;2022-09-17T11:50:04;16.60;99.90
47336;DHT22;33068;51.990;5.926;2022-09-17T11:52:37;16.60;99.90
47336;DHT22;33068;51.990;5.926;2022-09-17T11:55:18;16.60;99.90
47336;DHT22;33068;51.990;5.926;2022-09-17T11:57:50;16.60;99.90
47336;DHT22;33068;51.990;5.926;2022-09-17T12:00:19;16.90;99.90
47336;DHT22;33068;51.990;5.926;2022-09-17T12:02:52;17.30;99.90
47336;DHT22;33068;51.990;5.926;2022-09-17T12:05:23;17.20;99.90
47336;DHT22;33068;51.990;5.926;2022-09-17T12:07:55;17.20;99.90
47336;DHT22;33068;51.990;5.926;2022-09-17T12:10:40;17.30;99.90
47336;DHT22;33068;51.990;5.926;2022-09-17T12:13:26;17.50;99.90
47336;DHT22;33068;51.990;5.926;2022-09-17T12:16:03;17.00;99.90
47336;DHT22;33068;51.990;5.926;2022-09-17T12:18:44;16.20;99.90
47336;DHT22;33068;51.990;5.926;2022-09-17T12:21:16;15.50;99.90
47336;DHT22;33068;51.990;5.926;2022-09-17T12:23:47;15.00;99.90
47336;DHT22;33068;51.990;5.926;2022-09-17T12:26:26;14.70;99.90
47336;DHT22;33068;51.990;5.926;2022-09-17T12:29:04;14.70;99.90
47336;DHT22;33068;51.990;5.926;2022-09-17T12:31:41;14.70;99.90
47336;DHT22;33068;51.990;5.926;2022-09-17T12:34:25;14.50;99.90
47336;DHT22;33068;51.990;5.926;2022-09-17T12:37:01;14.80;99.90
47336;DHT22;33068;51.990;5.926;2022-09-17T12:39:57;15.40;99.90
47336;DHT22;33068;51.990;5.926;2022-09-17T12:42:41;15.80;99.90
47336;DHT22;33068;51.990;5.926;2022-09-17T12:48:17;16.70;99.90
47336;DHT22;33068;51.990;5.926;2022-09-17T12:50:57;16.80;99.90
47336;DHT22;33068;51.990;5.926;2022-09-17T12:53:29;16.50;99.90
47336;DHT22;33068;51.990;5.926;2022-09-17T12:56:15;16.40;99.90
47336;DHT22;33068;51.990;5.926;2022-09-17T13:01:42;16.10;99.90
47336;DHT22;33068;51.990;5.926;2022-09-17T13:04:26;15.90;99.90
47336;DHT22;33068;51.990;5.926;2022-09-17T13:07:24;16.00;99.90
47336;DHT22;33068;51.990;5.926;2022-09-17T13:10:09;16.30;99.90
47336;DHT22;33068;51.990;5.926;2022-09-17T13:12:41;16.50;99.90
47336;DHT22;33068;51.990;5.926;2022-09-17T13:15:33;16.70;99.90
47336;DHT22;33068;51.990;5.926;2022-09-17T13:18:11;17.00;99.90
47336;DHT22;33068;51.990;5.926;2022-09-17T13:20:47;17.00;99.90
47336;DHT22;33068;51.990;5.926;2022-09-17T13:23:32;16.90;99.90
47336;DHT22;33068;51.990;5.926;2022-09-17T13:26:01;17.10;99.90
47336;DHT22;33068;51.990;5.926;2022-09-17T13:28:42;17.10;99.90
47336;DHT22;33068;51.990;5.926;2022-09-17T13:31:10;16.90;99.90
47336;DHT22;33068;51.990;5.926;2022-09-17T13:33:54;17.10;99.90
47336;DHT22;33068;51.990;5.926;2022-09-17T13:36:36;17.10;99.90
47336;DHT22;33068;51.990;5.926;2022-09-17T13:39:05;17.40;99.90
47336;DHT22;33068;51.990;5.926;2022-09-17T13:41:35;17.60;99.90
47336;DHT22;33068;51.990;5.926;2022-09-17T13:44:04;17.90;99.40
47336;DHT22;33068;51.990;5.926;2022-09-17T13:46:32;17.70;99.60
47336;DHT22;33068;51.990;5.926;2022-09-17T13:49:03;17.40;98.40
47336;DHT22;33068;51.990;5.926;2022-09-17T13:51:58;16.90;96.50
47336;DHT22;33068;51.990;5.926;2022-09-17T13:54:35;16.70;99.70
47336;DHT22;33068;51.990;5.926;2022-09-17T13:57:10;17.00;97.30
47336;DHT22;33068;51.990;5.926;2022-09-17T13:59:37;17.00;97.00
47336;DHT22;33068;51.990;5.926;2022-09-17T14:02:32;17.00;98.10
47336;DHT22;33068;51.990;5.926;2022-09-17T14:05:35;17.10;98.20
47336;DHT22;33068;51.990;5.926;2022-09-17T14:08:24;17.10;99.90
47336;DHT22;33068;51.990;5.926;2022-09-17T14:10:54;17.10;97.40
47336;DHT22;33068;51.990;5.926;2022-09-17T14:13:52;17.00;98.80
47336;DHT22;33068;51.990;5.926;2022-09-17T14:16:30;16.60;99.90
47336;DHT22;33068;51.990;5.926;2022-09-17T14:19:03;16.50;99.90
47336;DHT22;33068;51.990;5.926;2022-09-17T14:21:33;15.80;99.90
47336;DHT22;33068;51.990;5.926;2022-09-17T14:24:02;15.80;99.90
47336;DHT22;33068;51.990;5.926;2022-09-17T14:26:53;15.60;99.90
47336;DHT22;33068;51.990;5.926;2022-09-17T14:29:45;15.70;99.90
47336;DHT22;33068;51.990;5.926;2022-09-17T14:32:17;16.00;99.90
47336;DHT22;33068;51.990;5.926;2022-09-17T14:34:46;15.70;99.90
47336;DHT22;33068;51.990;5.926;2022-09-17T14:37:17;15.60;99.90
47336;DHT22;33068;51.990;5.926;2022-09-17T14:39:45;15.60;99.90
47336;DHT22;33068;51.990;5.926;2022-09-17T14:42:16;15.50;99.90
47336;DHT22;33068;51.990;5.926;2022-09-17T14:44:55;15.60;99.90
47336;DHT22;33068;51.990;5.926;2022-09-17T14:47:24;15.60;99.90
47336;DHT22;33068;51.990;5.926;2022-09-17T14:49:52;15.70;99.90
47336;DHT22;33068;51.990;5.926;2022-09-17T14:52:25;15.70;99.90
47336;DHT22;33068;51.990;5.926;2022-09-17T14:55:09;15.50;99.90
47336;DHT22;33068;51.990;5.926;2022-09-17T14:57:36;15.40;99.90
47336;DHT22;33068;51.990;5.926;2022-09-17T15:00:04;15.30;99.90
47336;DHT22;33068;51.990;5.926;2022-09-17T15:02:35;15.30;99.90
47336;DHT22;33068;51.990;5.926;2022-09-17T15:05:23;15.20;99.90
47336;DHT22;33068;51.990;5.926;2022-09-17T15:08:04;15.30;99.90
47336;DHT22;33068;51.990;5.926;2022-09-17T15:10:34;15.20;99.90
47336;DHT22;33068;51.990;5.926;2022-09-17T15:13:02;15.20;99.90
47336;DHT22;33068;51.990;5.926;2022-09-17T15:15:29;15.30;99.90
47336;DHT22;33068;51.990;5.926;2022-09-17T15:17:57;15.60;99.90
47336;DHT22;33068;51.990;5.926;2022-09-17T15:20:27;16.00;99.90
47336;DHT22;33068;51.990;5.926;2022-09-17T15:23:06;16.20;99.90
47336;DHT22;33068;51.990;5.926;2022-09-17T15:25:35;16.40;99.90
47336;DHT22;33068;51.990;5.926;2022-09-17T15:28:11;16.60;99.90
47336;DHT22;33068;51.990;5.926;2022-09-17T15:30:43;16.50;99.90
47336;DHT22;33068;51.990;5.926;2022-09-17T15:33:11;16.70;99.90
47336;DHT22;33068;51.990;5.926;2022-09-17T15:35:40;16.80;99.90
47336;DHT22;33068;51.990;5.926;2022-09-17T15:38:23;16.90;99.90
47336;DHT22;33068;51.990;5.926;2022-09-17T15:40:52;16.50;99.90
47336;DHT22;33068;51.990;5.926;2022-09-17T15:43:24;15.80;99.90
47336;DHT22;33068;51.990;5.926;2022-09-17T15:45:52;15.30;99.90
47336;DHT22;33068;51.990;5.926;2022-09-17T15:48:34;14.80;99.90
47336;DHT22;33068;51.990;5.926;2022-09-17T15:51:04;14.80;99.90
47336;DHT22;33068;51.990;5.926;2022-09-17T15:53:34;15.40;99.90
47336;DHT22;33068;51.990;5.926;2022-09-17T15:56:04;15.90;99.90
47336;DHT22;33068;51.990;5.926;2022-09-17T15:58:36;16.10;99.90
47336;DHT22;33068;51.990;5.926;2022-09-17T16:04:29;16.60;99.90
47336;DHT22;33068;51.990;5.926;2022-09-17T16:09:51;16.60;99.90
47336;DHT22;33068;51.990;5.926;2022-09-17T16:12:21;16.40;99.90
47336;DHT22;33068;51.990;5.926;2022-09-17T16:14:50;16.40;99.90
47336;DHT22;33068;51.990;5.926;2022-09-17T16:17:28;16.20;99.90
47336;DHT22;33068;51.990;5.926;2022-09-17T16:20:08;16.00;99.90
47336;DHT22;33068;51.990;5.926;2022-09-17T16:22:38;15.50;99.90
47336;DHT22;33068;51.990;5.926;2022-09-17T16:25:07;15.10;99.90
47336;DHT22;33068;51.990;5.926;2022-09-17T16:27:42;14.90;99.90
47336;DHT22;33068;51.990;5.926;2022-09-17T16:30:14;14.70;99.90
47336;DHT22;33068;51.990;5.926;2022-09-17T16:32:41;14.50;99.90